Noordam — PHET — position and weather

sailwx.info

Track history (hours):
 
Tides and Currents Weather Stations Pressure Air Temp Water Temp Dewpoint Dewpoint Depression Visibility Wind Speed Wind Dir Waves Ship Positions

Noordam (Netherlands)

Ship's website: http://www.hollandamerica.com/cruiseships/Noordam

Last reported at 2014-Oct-31 17:00 UTC. Time now 2014-Oct-31 23:08 UTC.
Position N 29°30' W 061°12'.

Type: Passenger vessel. MMSI: 246028000.

Wind from 170 at 27 knots

Waves 0.5 meters (2 feet), 2 second period

Barometer 1012.0 mb
Air temperature 25.9 ° C
Visibility: greater than 10.8 NM
Dewpoint 23.6 ° C
Water temperature 26.8 ° C

Date/timePositionNaut miles runAvg speedWind from/ knotsBaromVisibWave heightAir tempDewpointWater temp
2014-Oct-31 17:00N 29°30' W 061°12'14518.1 170 / 271012.010.8 0.525.923.626.8
2014-Oct-31 09:00N 30°06' W 058°30'1716.7 160 / 211015.010.8 0.523.221.525.7
2014-Oct-31 08:00N 30°12' W 058°12'31418.5 120 / 141015.010.8 0.523.221.525.7
2014-Oct-30 15:00N 31°30' W 052°18'75218.4 080 / 171021.010.8 0.524.419.225.0
2014-Oct-28 22:00N 35°00' W 037°54'14518.1 210 / 311018.010.8 23.322.523.7
2014-Oct-28 14:00N 36°00' W 035°12'9017.9 230 / 251017.010.8 22.518.921.8
2014-Oct-28 09:00N 36°36' W 033°30'1615.6 250 / 231017.0 5.4 1.020.920.720.5
2014-Oct-28 08:00N 36°42' W 033°12'13817.2 250 / 231016.0 5.4 1.020.920.720.5
2014-Oct-28 00:00N 37°42' W 030°36'2617.9 310 / 191015.0 5.4 1.019.617.919.8
2014-Oct-27 22:32N 37°55' W 030°08'1717.4
2014-Oct-27 21:33N 38°02' W 029°48'1717.4
2014-Oct-27 20:33N 38°10' W 029°28'1817.6
2014-Oct-27 19:33N 38°17' W 029°08'1817.8
2014-Oct-27 18:33N 38°25' W 028°47'1110.4
2014-Oct-27 17:31N 38°32' W 028°37'0 0.0
2014-Oct-27 16:31N 38°32' W 028°37'0 0.0
2014-Oct-27 15:31N 38°32' W 028°37'0 0.0
2014-Oct-27 14:31N 38°32' W 028°37'0 0.0
2014-Oct-27 13:31N 38°32' W 028°37'0 0.0
2014-Oct-27 12:31N 38°32' W 028°37'0 0.0
2014-Oct-27 11:31N 38°32' W 028°37'0 0.0
2014-Oct-27 10:31N 38°32' W 028°37'0 0.0
2014-Oct-27 09:28N 38°32' W 028°37'0 0.0
2014-Oct-27 08:31N 38°32' W 028°37'7 7.3
2014-Oct-27 07:33N 38°26' W 028°33'1111.0
2014-Oct-27 06:33N 38°21' W 028°21'10 9.9
2014-Oct-27 05:33N 38°18' W 028°09'1010.0
2014-Oct-27 04:33N 38°15' W 027°57'1110.7
2014-Oct-27 03:33N 38°12' W 027°44'1110.7
2014-Oct-27 02:33N 38°09' W 027°31'1211.7
2014-Oct-27 01:33N 38°05' W 027°16'1111.5
2014-Oct-27 00:33N 38°01' W 027°03'1111.0
2014-Oct-26 23:33N 37°58' W 026°49'1111.1
2014-Oct-26 22:33N 37°54' W 026°36'1120.2
2014-Oct-26 22:00N 37°48' W 026°24'3 7.5 250 / 191016.010.8 18.214.720.0
2014-Oct-26 21:33N 37°51' W 026°22'1111.4
2014-Oct-26 20:34N 37°47' W 026°09'1110.5
2014-Oct-26 19:33N 37°44' W 025°56'10 9.7
2014-Oct-26 18:33N 37°41' W 025°44'5 4.7
2014-Oct-26 17:33N 37°44' W 025°40'0 0.0
2014-Oct-26 16:33N 37°44' W 025°40'0 0.0
2014-Oct-26 15:33N 37°44' W 025°40'0 0.0
2014-Oct-26 14:31N 37°44' W 025°40'0 0.0
2014-Oct-26 13:31N 37°44' W 025°40'0 0.0
2014-Oct-26 12:31N 37°44' W 025°40'0 0.0
2014-Oct-26 11:31N 37°44' W 025°40'0 0.0
2014-Oct-26 10:31N 37°44' W 025°40'0 0.0
2014-Oct-26 09:31N 37°44' W 025°40'0 0.4
2014-Oct-26 08:33N 37°44' W 025°39'10 9.6
2014-Oct-26 07:33N 37°40' W 025°29'1717.5
2014-Oct-26 06:34N 37°38' W 025°07'1817.6
2014-Oct-26 05:33N 37°36' W 024°45'1716.8
2014-Oct-26 04:33N 37°34' W 024°24'1716.9
2014-Oct-26 03:34N 37°32' W 024°03'1716.8
2014-Oct-26 02:33N 37°31' W 023°41'1615.9
2014-Oct-26 01:33N 37°30' W 023°21'8916.0
2014-Oct-25 20:00N 37°18' W 021°30'20714.8 350 / 61015.010.8 1.019.818.620.9
2014-Oct-25 06:00N 36°54' W 017°12'19914.8 180 / 161014.010.8 1.020.019.522.0
2014-Oct-24 16:33N 36°35' W 013°04'3715.1
2014-Oct-24 14:05N 36°30' W 012°18'915.1
2014-Oct-24 13:30N 36°29' W 012°08'1515.4
2014-Oct-24 12:33N 36°27' W 011°49'1615.7
2014-Oct-24 11:33N 36°26' W 011°30'1515.1
2014-Oct-24 10:33N 36°24' W 011°11'1119.8
2014-Oct-24 10:00N 36°18' W 011°00'614.2 020 / 191017.010.8 1.022.018.622.4
2014-Oct-24 09:33N 36°23' W 010°55'1515.3
2014-Oct-24 08:33N 36°21' W 010°37'1515.1
2014-Oct-24 07:33N 36°21' W 010°18'1017.8
2014-Oct-24 07:00N 36°18' W 010°06'511.6 020 / 191015.0 0.5
2014-Oct-24 06:33N 36°18' W 009°60'1815.1
2014-Oct-24 05:22N 36°16' W 009°38'819.8
2014-Oct-24 05:00N 36°12' W 009°30'715.6 020 / 171015.010.8 1.522.016.922.6
2014-Oct-24 04:33N 36°15' W 009°22'3216.1
2014-Oct-24 02:33N 36°12' W 008°43'1716.7
2014-Oct-24 01:33N 36°11' W 008°22'2416.7
2014-Oct-24 00:06N 36°10' W 007°52'1316.2
2014-Oct-23 23:19N 36°05' W 007°38'1316.5
2014-Oct-23 22:33N 36°02' W 007°22'1616.3
2014-Oct-23 21:33N 36°00' W 007°02'1715.9
2014-Oct-23 20:30N 36°02' W 006°42'5215.6
2014-Oct-23 17:11N 35°58' W 005°38'914.3
2014-Oct-23 16:33N 36°01' W 005°27'9 0.9
2014-Oct-23 06:07N 36°09' W 005°22'3 5.0
2014-Oct-23 05:31N 36°06' W 005°22'5 5.2
2014-Oct-23 04:34N 36°07' W 005°16'7 6.6
2014-Oct-23 03:33N 36°10' W 005°09'200 5.8
2014-Oct-21 17:00N 37°12' W 001°12'   280 / 81022.010.8 23.119.923.3
Track history (hours):
 
Tides and Currents Weather Stations Pressure Air Temp Water Temp Dewpoint Dewpoint Depression Visibility Wind Speed Wind Dir Waves Ship Positions

Noordam (Netherlands)

Ship's website: http://www.hollandamerica.com/cruiseships/Noordam

Last reported at 2014-Oct-31 17:00 UTC. Time now 2014-Oct-31 23:08 UTC.
Position N 29°30' W 061°12'.

Type: Passenger vessel. MMSI: 246028000.

Wind from 170 at 27 knots

Waves 0.5 meters (2 feet), 2 second period

Barometer 1012.0 mb
Air temperature 25.9 ° C
Visibility: greater than 10.8 NM
Dewpoint 23.6 ° C
Water temperature 26.8 ° C

Date/timePositionNaut miles runAvg speedWind from/ knotsBaromVisibWave heightAir tempDewpointWater temp
2014-Oct-31 17:00N 29°30' W 061°12'14518.1 170 / 271012.010.8 0.525.923.626.8
2014-Oct-31 09:00N 30°06' W 058°30'1716.7 160 / 211015.010.8 0.523.221.525.7
2014-Oct-31 08:00N 30°12' W 058°12'31418.5 120 / 141015.010.8 0.523.221.525.7
2014-Oct-30 15:00N 31°30' W 052°18'75218.4 080 / 171021.010.8 0.524.419.225.0
2014-Oct-28 22:00N 35°00' W 037°54'14518.1 210 / 311018.010.8 23.322.523.7
2014-Oct-28 14:00N 36°00' W 035°12'9017.9 230 / 251017.010.8 22.518.921.8
2014-Oct-28 09:00N 36°36' W 033°30'1615.6 250 / 231017.0 5.4 1.020.920.720.5
2014-Oct-28 08:00N 36°42' W 033°12'13817.2 250 / 231016.0 5.4 1.020.920.720.5
2014-Oct-28 00:00N 37°42' W 030°36'2617.9 310 / 191015.0 5.4 1.019.617.919.8
2014-Oct-27 22:32N 37°55' W 030°08'1717.4
2014-Oct-27 21:33N 38°02' W 029°48'1717.4
2014-Oct-27 20:33N 38°10' W 029°28'1817.6
2014-Oct-27 19:33N 38°17' W 029°08'1817.8
2014-Oct-27 18:33N 38°25' W 028°47'1110.4
2014-Oct-27 17:31N 38°32' W 028°37'0 0.0
2014-Oct-27 16:31N 38°32' W 028°37'0 0.0
2014-Oct-27 15:31N 38°32' W 028°37'0 0.0
2014-Oct-27 14:31N 38°32' W 028°37'0 0.0
2014-Oct-27 13:31N 38°32' W 028°37'0 0.0
2014-Oct-27 12:31N 38°32' W 028°37'0 0.0
2014-Oct-27 11:31N 38°32' W 028°37'0 0.0
2014-Oct-27 10:31N 38°32' W 028°37'0 0.0
2014-Oct-27 09:28N 38°32' W 028°37'0 0.0
2014-Oct-27 08:31N 38°32' W 028°37'7 7.3
2014-Oct-27 07:33N 38°26' W 028°33'1111.0
2014-Oct-27 06:33N 38°21' W 028°21'10 9.9
2014-Oct-27 05:33N 38°18' W 028°09'1010.0
2014-Oct-27 04:33N 38°15' W 027°57'1110.7
2014-Oct-27 03:33N 38°12' W 027°44'1110.7
2014-Oct-27 02:33N 38°09' W 027°31'1211.7
2014-Oct-27 01:33N 38°05' W 027°16'1111.5
2014-Oct-27 00:33N 38°01' W 027°03'1111.0
2014-Oct-26 23:33N 37°58' W 026°49'1111.1
2014-Oct-26 22:33N 37°54' W 026°36'1120.2
2014-Oct-26 22:00N 37°48' W 026°24'3 7.5 250 / 191016.010.8 18.214.720.0
2014-Oct-26 21:33N 37°51' W 026°22'1111.4
2014-Oct-26 20:34N 37°47' W 026°09'1110.5
2014-Oct-26 19:33N 37°44' W 025°56'10 9.7
2014-Oct-26 18:33N 37°41' W 025°44'5 4.7
2014-Oct-26 17:33N 37°44' W 025°40'0 0.0
2014-Oct-26 16:33N 37°44' W 025°40'0 0.0
2014-Oct-26 15:33N 37°44' W 025°40'0 0.0
2014-Oct-26 14:31N 37°44' W 025°40'0 0.0
2014-Oct-26 13:31N 37°44' W 025°40'0 0.0
2014-Oct-26 12:31N 37°44' W 025°40'0 0.0
2014-Oct-26 11:31N 37°44' W 025°40'0 0.0
2014-Oct-26 10:31N 37°44' W 025°40'0 0.0
2014-Oct-26 09:31N 37°44' W 025°40'0 0.4
2014-Oct-26 08:33N 37°44' W 025°39'10 9.6
2014-Oct-26 07:33N 37°40' W 025°29'1717.5
2014-Oct-26 06:34N 37°38' W 025°07'1817.6
2014-Oct-26 05:33N 37°36' W 024°45'1716.8
2014-Oct-26 04:33N 37°34' W 024°24'1716.9
2014-Oct-26 03:34N 37°32' W 024°03'1716.8
2014-Oct-26 02:33N 37°31' W 023°41'1615.9
2014-Oct-26 01:33N 37°30' W 023°21'8916.0
2014-Oct-25 20:00N 37°18' W 021°30'20714.8 350 / 61015.010.8 1.019.818.620.9
2014-Oct-25 06:00N 36°54' W 017°12'19914.8 180 / 161014.010.8 1.020.019.522.0
2014-Oct-24 16:33N 36°35' W 013°04'3715.1
2014-Oct-24 14:05N 36°30' W 012°18'915.1
2014-Oct-24 13:30N 36°29' W 012°08'1515.4
2014-Oct-24 12:33N 36°27' W 011°49'1615.7
2014-Oct-24 11:33N 36°26' W 011°30'1515.1
2014-Oct-24 10:33N 36°24' W 011°11'1119.8
2014-Oct-24 10:00N 36°18' W 011°00'614.2 020 / 191017.010.8 1.022.018.622.4
2014-Oct-24 09:33N 36°23' W 010°55'1515.3
2014-Oct-24 08:33N 36°21' W 010°37'1515.1
2014-Oct-24 07:33N 36°21' W 010°18'1017.8
2014-Oct-24 07:00N 36°18' W 010°06'511.6 020 / 191015.0 0.5
2014-Oct-24 06:33N 36°18' W 009°60'1815.1
2014-Oct-24 05:22N 36°16' W 009°38'819.8
2014-Oct-24 05:00N 36°12' W 009°30'715.6 020 / 171015.010.8 1.522.016.922.6
2014-Oct-24 04:33N 36°15' W 009°22'3216.1
2014-Oct-24 02:33N 36°12' W 008°43'1716.7
2014-Oct-24 01:33N 36°11' W 008°22'2416.7
2014-Oct-24 00:06N 36°10' W 007°52'1316.2
2014-Oct-23 23:19N 36°05' W 007°38'1316.5
2014-Oct-23 22:33N 36°02' W 007°22'1616.3
2014-Oct-23 21:33N 36°00' W 007°02'1715.9
2014-Oct-23 20:30N 36°02' W 006°42'5215.6
2014-Oct-23 17:11N 35°58' W 005°38'914.3
2014-Oct-23 16:33N 36°01' W 005°27'9 0.9
2014-Oct-23 06:07N 36°09' W 005°22'3 5.0
2014-Oct-23 05:31N 36°06' W 005°22'5 5.2
2014-Oct-23 04:34N 36°07' W 005°16'7 6.6
2014-Oct-23 03:33N 36°10' W 005°09'200 5.8
2014-Oct-21 17:00N 37°12' W 001°12'   280 / 81022.010.8 23.119.923.3

Dump ship's entire track history